Onion Creek, California Weather observations

Data are for observation ending at time listed.
 Day   Time    Ave.   Ave.  Ave.  Vector   Max.   Stn.    Total    Solar   Ave.   Snow 
  of    of     Air    Rel.  Wind   Wind    Wind   Baro.  Precip.   Rad.    Soil   Depth
Year   Day     Temp.  Hum.  Speed  Dir.    Gust   Pres.                    Temp.       
2015   (PST)    F      %     mph   deg.    mph     mb.     in.     W/m2     F      in. 
---------------------------------------------------------------------------------------  
 245   13:40   70.5    24    4.7   263     12.0   830.3   37.05     885    66.7   999.0
 245   13:50   71.5    24    4.3   259     14.7   830.3   37.05     866    67.1   999.0
 245   14:00   71.0    25    5.1   264     14.2   830.3   37.05     846    67.4   999.0
 245   14:10   70.8    25    4.7   249     17.2   830.2   37.05     825    67.8   999.0
 245   14:20   70.1    26    4.9   259     12.4   830.2   37.05     801    68.1   999.0
 245   14:30   70.4    24    6.8   272     17.8   830.2   37.05     772    68.4   999.0
 245   14:40   70.2    24    4.5   273     16.9   830.1   37.05     742    68.6   999.0
 245   14:50   70.3    24    4.6   244     21.2   830.0   37.02     713    68.9   999.0
 245   15:00   70.5    24    5.5   272     14.0   829.9   37.05     686    69.0   999.0
 245   15:10   70.3    24    4.3   266     12.9   830.0   37.05     655    69.1   999.0
 245   15:20   70.2    24    4.9   264     11.7   830.0   37.05     627    69.2   999.0
 245   15:30   68.9    25    5.1   235     12.6   830.0   37.05     602    69.2   999.0
 245   15:40   68.5    25    4.2   258     13.0   829.9   37.05     567    69.2   999.0
 245   15:50   68.7    25    4.7   249     16.6   829.9   37.05     536    69.0   999.0
 245   16:00   68.1    25    5.4   259     17.3   829.9   37.02     451    69.0   999.0
 245   16:10   66.9    27    5.8   274     17.6   829.8   37.05      85    68.9   999.0
 245   16:20   66.7    26    4.1   239     10.5   829.8   37.02      61    68.7   999.0
 245   16:30   66.6    27    3.8   261     14.2   829.7   37.02      51    68.6   999.0
 245   16:40   66.0    27    5.6   279     15.3   829.7   37.02      54    68.5   999.0
 245   16:50   65.4    28    4.1   267     15.0   829.6   37.05      83    68.3   999.0
 245   17:00   65.6    28    3.7   273      9.3   829.5   37.05      82    68.1   999.0
 245   17:10   64.8    29    4.5   274     10.7   829.4   37.05      45    68.0   999.0
 245   17:20   64.4    31    4.4   262     11.5   829.4   37.05      71    67.8   999.0
 245   17:30   64.2    33    2.8   267      6.6   829.4   37.02      44    67.7   999.0
 245   17:40   63.4    34    4.2   251     13.6   829.5   37.05      74    67.5   999.0
 245   17:50   62.3    37    4.7   249     11.9   829.4   37.02      47    67.3   999.0
 245   18:00   61.0    40    3.8   261     12.1   829.4   37.05      21    67.2   999.0
 245   18:10   60.0    41    3.2   238      9.9   829.4   37.02      14    67.0   999.0
 245   18:20   59.5    43    2.7   264     10.3   829.3   37.05      10    66.8   999.0
 245   18:30   58.9    45    2.9   240      9.1   829.3   37.05       7    66.7   999.0
 245   18:40   58.4    46    2.5   245      8.9   829.3   37.05       3    66.5   999.0
 245   18:50   57.7    48    1.1   245      3.7   829.3   37.05       1    66.4   999.0
 245   19:00   56.6    50    1.0   254      2.6   829.4   37.05       0    66.2   999.0
 245   19:10   56.1    51    0.6   265      3.5   829.4   37.05       0    66.0   999.0
 245   19:20   55.5    52    1.2   277      3.1   829.5   37.05       0    65.9   999.0
 245   19:30   55.0    54    0.5   348      2.9   829.6   37.05       0    65.6   999.0
 245   19:40   54.7    54    1.0   291      5.0   829.7   37.02       0    65.5   999.0
 245   19:50   54.8    54    0.6   258      2.3   829.8   37.05       0    65.3   999.0
 245   20:00   54.4    55    0.2   280      0.9   829.8   37.05       0    65.1   999.0
 245   20:10   53.8    55    0.6    66      1.7   829.8   37.05       0    64.9   999.0
 245   20:20   53.3    56    0.5    59      1.6   829.8   37.05       0    64.7   999.0
 245   20:30   52.8    57    0.7    58      2.0   829.9   37.05       0    64.5   999.0
 245   20:40   51.9    59    0.7    21      1.7   829.9   37.02       0    64.3   999.0
 245   20:50   51.3    60    1.0    35      1.8   829.9   37.05       0    64.1   999.0
 245   21:00   50.9    60    1.0    30      2.1   829.8   37.02       0    63.9   999.0
 245   21:10   50.5    61    0.8    12      2.8   829.8   37.02       0    63.7   999.0
 245   21:20   50.2    62    0.9    33      2.1   829.7   37.05       0    63.6   999.0
 245   21:30   50.0    62    1.0    34      2.5   829.6   37.05       0    63.4   999.0
 245   21:40   49.9    63    0.4    21      1.2   829.6   37.02       0    63.2   999.0
 245   21:50   49.7    64    0.9    38      2.2   829.6   37.05       0    63.0   999.0
 245   22:00   49.9    64    0.9    42      1.8   829.5   37.02       0    62.9   999.0
 245   22:10   49.8    64    0.6    22      1.8   829.5   37.05       0    62.7   999.0
 245   22:20   49.6    64    0.9    32      2.3   829.5   37.02       0    62.5   999.0
 245   22:30   49.6    64    0.7    52      1.8   829.6   37.02       0    62.4   999.0
 245   22:40   49.5    64    0.8    31      2.1   829.5   37.05       0    62.2   999.0
 245   22:50   49.5    64    0.9    38      2.0   829.5   37.05       0    62.1   999.0
 245   23:00   49.5    64    0.9    43      2.2   829.4   37.05       0    61.9   999.0
 245   23:10   49.2    65    1.2    44      2.6   829.4   37.05       0    61.8   999.0
 245   23:20   49.3    64    1.0    48      2.1   829.3   37.05       0    61.6   999.0
 245   23:30   49.0    65    0.8    45      2.0   829.3   37.05       0    61.5   999.0
 245   23:40   48.7    65    1.0    40      2.4   829.3   37.05       0    61.4   999.0
 245   23:50   48.5    66    1.0    29      2.0   829.2   37.05       0    61.2   999.0
 246    0:00   48.5    65    1.1    52      2.3   829.2   37.05       0    61.1   999.0
 246    0:10   49.0    64    0.7    56      2.6   829.1   37.05       0    60.9   999.0
 246    0:20   48.8    65    0.7    54      2.2   829.0   37.05       0    60.8   999.0
 246    0:30   48.8    64    0.7    63      3.4   829.0   37.05       0    60.7   999.0
 246    0:40   49.2    64    0.5    72      2.1   828.9   37.05       0    60.5   999.0
 246    0:50   49.7    62    0.9   160      5.0   828.9   37.05       0    60.4   999.0
 246    1:00   50.0    62    0.5    89      1.8   828.9   37.05       0    60.3   999.0
 246    1:10   49.6    63    0.4    76      2.7   828.8   37.05       0    60.1   999.0
 246    1:20   49.2    64    0.9   328      3.9   828.8   37.05       0    60.0   999.0
 246    1:30   48.7    65    0.9     8      3.2   828.7   37.05       0    59.9   999.0
 246    1:40   48.8    65    1.2   312      2.2   828.7   37.05       0    59.8   999.0
 246    1:50   48.8    65    0.8    12      3.1   828.7   37.09       0    59.6   999.0
 246    2:00   48.8    64    0.9    60      3.5   828.7   37.09       0    59.5   999.0
 246    2:10   49.0    63    0.5    27      2.0   828.7   37.05       0    59.4   999.0
 246    2:20   49.2    62    1.1    39      4.8   828.7   37.05       0    59.3   999.0
 246    2:30   49.2    62    0.7    33      3.3   828.7   37.05       0    59.2   999.0
 246    2:40   48.1    65    1.2    38      4.3   828.7   37.05       0    59.1   999.0
 246    2:50   48.6    63    1.0   220      3.0   828.7   37.05       0    58.9   999.0
 246    3:00   48.1    64    1.4    17      9.3   828.6   37.05       0    58.8   999.0
 246    3:10   47.8    65    0.8   338      2.3   828.6   37.05       0    58.7   999.0
 246    3:20   47.4    66    1.0    25      3.1   828.6   37.05       0    58.6   999.0
 246    3:30   46.9    67    1.1    28      2.7   828.6   37.05       0    58.4   999.0
 246    3:40   46.4    68    1.4    30      5.0   828.6   37.05       0    58.3   999.0
 246    3:50   46.4    68    0.9    39      2.0   828.5   37.05       0    58.2   999.0
 246    4:00   46.5    68    1.2    33      3.5   828.4   37.05       0    58.1   999.0
 246    4:10   46.4    68    0.7    37      2.7   828.3   37.05       0    58.0   999.0
 246    4:20   46.0    70    1.1    27      4.2   828.2   37.05       0    57.9   999.0
 246    4:30   46.4    68    1.1    42      2.3   828.1   37.05       0    57.7   999.0
 246    4:40   45.9    70    1.0    48      2.8   828.0   37.05       0    57.6   999.0
 246    4:50   45.9    70    1.7    43      4.0   827.9   37.05       0    57.5   999.0
 246    5:00   45.9    70    1.2    59      2.4   827.9   37.05       0    57.4   999.0
 246    5:10   45.8    71    1.0    34      2.7   827.9   37.05       0    57.3   999.0
 246    5:20   45.6    72    1.0    44      2.0   828.0   37.05       0    57.2   999.0
 246    5:30   45.5    72    0.9    41      2.3   828.1   37.05       1    57.1   999.0
 246    5:40   45.3    73    0.9     8      2.8   828.1   37.05       4    57.0   999.0
 246    5:50   45.2    73    1.0    27      3.7   828.1   37.09       8    56.9   999.0
 246    6:00   45.4    73    1.2    57      4.2   828.2   37.05      12    56.8   999.0
 246    6:10   45.7    73    0.6     8      3.0   828.2   37.05      12    56.6   999.0
 246    6:20   46.0    73    0.9    49      3.5   828.3   37.05      15    56.6   999.0
 246    6:30   47.2    72    1.6    46      5.3   828.4   37.09      23    56.4   999.0
 246    6:40   49.2    68    1.7   295      4.8   828.5   37.09      45    56.4   999.0
 246    6:50   50.1    66    1.1   315      3.7   828.7   37.09      44    56.3   999.0
 246    7:00   49.7    68    1.1   260      3.7   828.7   37.09      47    56.2   999.0
 246    7:10   50.4    65    1.7   250      4.9   828.7   37.05      47    56.2   999.0
 246    7:20   51.2    63    1.3   274      5.0   828.7   37.05      42    56.2   999.0
 246    7:30   50.6    65    1.2   308      4.0   828.7   37.09      36    56.2   999.0
 246    7:40   51.0    64    1.6   293      4.7   828.8   37.09      36    56.2   999.0
 246    7:50   51.9    60    2.5   286      7.2   828.8   37.05      37    56.1   999.0
 246    8:00   52.5    59    3.0   274     10.1   828.8   37.05      46    56.1   999.0
 246    8:10   52.7    57    2.0   259      5.0   828.8   37.09      52    56.1   999.0
 246    8:20   53.5    56    2.7   255      8.8   828.8   37.05     328    56.1   999.0
 246    8:30   54.8    53    3.8   280     11.8   828.7   37.05     556    56.0   999.0
 246    8:40   56.0    51    3.5   268     10.2   828.7   37.05     493    56.0   999.0
 246    8:50   56.4    52    1.9   283      6.0   828.7   37.05     249    56.0   999.0
 246    9:00   56.4    52    1.9   269      6.0   828.7   37.05     218    56.0   999.0
 246    9:10   56.5    53    2.2   279      8.9   828.7   37.05     325    56.1   999.0
 246    9:20   58.4    50    3.9   274     12.7   828.7   37.09     580    56.1   999.0
 246    9:30   60.6    46    3.9   288     11.3   828.7   37.05     660    56.3   999.0
 246    9:40   61.1    44    3.8   261     11.7   828.7   37.05     930    56.4   999.0
 246    9:50   61.5    44    4.8   271     10.8   828.7   37.05     620    56.6   999.0
 246   10:00   59.8    46    5.8   273     16.4   828.7   37.05     518    56.8   999.0
 246   10:10   58.9    47    5.1   262     11.8   828.7   37.09     316    57.1   999.0
 246   10:20   58.8    48    4.1   262     13.8   828.7   37.05     372    57.4   999.0
 246   10:30   59.1    48    3.2   266     11.0   828.7   37.05     310    57.7   999.0
 246   10:40   58.9    49    3.3   281      8.6   828.6   37.05     356    58.0   999.0
 246   10:50   59.3    48    4.1   267      8.3   828.6   37.05     237    58.3   999.0
 246   11:00   58.9    49    4.9   288     11.0   828.6   37.05     303    58.5   999.0
 246   11:10   58.8    49    4.4   269     14.1   828.5   37.05     240    58.8   999.0
 246   11:20   58.5    49    4.6   252     13.2   828.4   37.09     164    59.1   999.0
 246   11:30   58.2    49    3.8   254     11.5   828.4   37.05     268    59.3   999.0
 246   11:40   59.4    47    4.0   247     14.2   828.4   37.09     422    59.4   999.0
 246   11:50   60.4    45    5.4   265     13.4   828.3   37.05     423    59.6   999.0
 246   12:00   61.2    44    5.7   275     13.7   828.3   37.05     567    59.8   999.0
 246   12:10   60.9    44    4.2   268     12.6   828.3   37.09     555    60.0   999.0
 246   12:20   61.6    43    4.7   278     12.5   828.2   37.05     551    60.2   999.0
 246   12:30   61.4    43    5.1   275     14.9   828.2   37.05     617    60.4   999.0
 246   12:40   61.7    41    5.2   266     15.7   828.1   37.05     494    60.6   999.0
 246   12:50   62.7    40    4.0   271     16.2   828.1   37.05     793    60.8   999.0
 246   13:00   62.4    39    6.5   274     15.4   828.1   37.09     784    61.0   999.0
 246   13:10   62.6    39    5.4   271     14.9   828.1   37.05     785    61.3   999.0
 246   13:20   62.0    39    4.1   261     14.3   828.1   37.09     557    61.6   999.0
 246   13:30   62.2    38    5.5   270     16.0   828.1   37.05     784    61.8   999.0

Return to Onion Creek graphs page.


Western Regional Climate Center,wrcc@dri.edu